sensor_id;sensor_type;location;lat;lon;timestamp;P1;durP1;ratioP1;P2;durP2;ratioP2
3811;SDS011;1921;49.368;11.068;2022-08-14T00:00:36;61.93;;;54.97;;
3811;SDS011;1921;49.368;11.068;2022-08-14T00:03:02;62.73;;;55.83;;
3811;SDS011;1921;49.368;11.068;2022-08-14T00:05:28;63.10;;;55.37;;
3811;SDS011;1921;49.368;11.068;2022-08-14T00:07:54;64.00;;;55.33;;
3811;SDS011;1921;49.368;11.068;2022-08-14T00:10:20;64.40;;;55.90;;
3811;SDS011;1921;49.368;11.068;2022-08-14T00:12:49;61.70;;;54.90;;
3811;SDS011;1921;49.368;11.068;2022-08-14T00:15:26;64.97;;;56.40;;
3811;SDS011;1921;49.368;11.068;2022-08-14T00:17:56;62.80;;;54.93;;
3811;SDS011;1921;49.368;11.068;2022-08-14T00:20:24;61.90;;;54.97;;
3811;SDS011;1921;49.368;11.068;2022-08-14T00:22:56;62.33;;;55.27;;
3811;SDS011;1921;49.368;11.068;2022-08-14T00:25:24;65.43;;;55.80;;
3811;SDS011;1921;49.368;11.068;2022-08-14T00:27:50;64.07;;;54.70;;
3811;SDS011;1921;49.368;11.068;2022-08-14T00:30:16;65.10;;;55.47;;
3811;SDS011;1921;49.368;11.068;2022-08-14T00:32:42;65.00;;;56.30;;
3811;SDS011;1921;49.368;11.068;2022-08-14T00:35:08;62.87;;;54.93;;
3811;SDS011;1921;49.368;11.068;2022-08-14T00:37:41;63.80;;;54.93;;
3811;SDS011;1921;49.368;11.068;2022-08-14T00:40:10;64.43;;;55.07;;
3811;SDS011;1921;49.368;11.068;2022-08-14T00:42:40;64.20;;;56.07;;
3811;SDS011;1921;49.368;11.068;2022-08-14T00:45:08;62.73;;;55.20;;
3811;SDS011;1921;49.368;11.068;2022-08-14T00:47:37;63.53;;;54.90;;
3811;SDS011;1921;49.368;11.068;2022-08-14T00:50:06;62.80;;;55.23;;
3811;SDS011;1921;49.368;11.068;2022-08-14T00:52:34;62.57;;;55.07;;
3811;SDS011;1921;49.368;11.068;2022-08-14T00:55:01;64.67;;;55.00;;
3811;SDS011;1921;49.368;11.068;2022-08-14T00:57:30;64.07;;;55.50;;
3811;SDS011;1921;49.368;11.068;2022-08-14T00:59:58;63.87;;;55.30;;
3811;SDS011;1921;49.368;11.068;2022-08-14T01:02:25;73.23;;;55.87;;
3811;SDS011;1921;49.368;11.068;2022-08-14T01:04:54;65.20;;;55.20;;
3811;SDS011;1921;49.368;11.068;2022-08-14T01:07:23;66.10;;;55.53;;
3811;SDS011;1921;49.368;11.068;2022-08-14T01:09:51;64.67;;;55.80;;
3811;SDS011;1921;49.368;11.068;2022-08-14T01:12:21;64.23;;;55.90;;
3811;SDS011;1921;49.368;11.068;2022-08-14T01:14:48;63.03;;;54.97;;
3811;SDS011;1921;49.368;11.068;2022-08-14T01:17:19;67.40;;;56.27;;
3811;SDS011;1921;49.368;11.068;2022-08-14T01:19:47;64.00;;;55.30;;
3811;SDS011;1921;49.368;11.068;2022-08-14T01:22:32;63.50;;;55.50;;
3811;SDS011;1921;49.368;11.068;2022-08-14T01:24:58;66.43;;;55.73;;
3811;SDS011;1921;49.368;11.068;2022-08-14T01:27:24;62.13;;;54.90;;
3811;SDS011;1921;49.368;11.068;2022-08-14T01:29:53;63.77;;;55.47;;
3811;SDS011;1921;49.368;11.068;2022-08-14T01:32:20;65.80;;;56.90;;
3811;SDS011;1921;49.368;11.068;2022-08-14T01:34:48;75.43;;;56.30;;
3811;SDS011;1921;49.368;11.068;2022-08-14T01:37:18;63.70;;;55.13;;
3811;SDS011;1921;49.368;11.068;2022-08-14T01:39:47;62.10;;;55.23;;
3811;SDS011;1921;49.368;11.068;2022-08-14T01:42:13;63.43;;;55.70;;
3811;SDS011;1921;49.368;11.068;2022-08-14T01:44:40;62.40;;;55.40;;
3811;SDS011;1921;49.368;11.068;2022-08-14T01:47:07;65.70;;;56.47;;
3811;SDS011;1921;49.368;11.068;2022-08-14T01:49:38;62.60;;;55.63;;
3811;SDS011;1921;49.368;11.068;2022-08-14T01:52:05;64.43;;;55.87;;
3811;SDS011;1921;49.368;11.068;2022-08-14T01:54:33;65.40;;;55.80;;
3811;SDS011;1921;49.368;11.068;2022-08-14T01:56:59;64.27;;;56.10;;
3811;SDS011;1921;49.368;11.068;2022-08-14T01:59:29;66.47;;;55.67;;
3811;SDS011;1921;49.368;11.068;2022-08-14T02:01:59;63.70;;;56.07;;
3811;SDS011;1921;49.368;11.068;2022-08-14T02:04:30;64.90;;;56.67;;
3811;SDS011;1921;49.368;11.068;2022-08-14T02:06:59;72.37;;;57.23;;
3811;SDS011;1921;49.368;11.068;2022-08-14T02:09:27;63.40;;;55.80;;
3811;SDS011;1921;49.368;11.068;2022-08-14T02:11:59;62.07;;;54.87;;
3811;SDS011;1921;49.368;11.068;2022-08-14T02:14:27;61.90;;;54.67;;
3811;SDS011;1921;49.368;11.068;2022-08-14T02:16:53;63.03;;;55.37;;
3811;SDS011;1921;49.368;11.068;2022-08-14T02:19:22;62.80;;;55.37;;
3811;SDS011;1921;49.368;11.068;2022-08-14T02:21:54;62.50;;;55.10;;
3811;SDS011;1921;49.368;11.068;2022-08-14T02:24:24;63.10;;;54.90;;
3811;SDS011;1921;49.368;11.068;2022-08-14T02:26:56;64.70;;;54.97;;
3811;SDS011;1921;49.368;11.068;2022-08-14T02:29:24;63.30;;;55.80;;
3811;SDS011;1921;49.368;11.068;2022-08-14T02:31:56;64.80;;;56.83;;
3811;SDS011;1921;49.368;11.068;2022-08-14T02:34:28;64.20;;;55.67;;
3811;SDS011;1921;49.368;11.068;2022-08-14T02:37:01;64.00;;;56.33;;
3811;SDS011;1921;49.368;11.068;2022-08-14T02:39:37;61.83;;;54.87;;
3811;SDS011;1921;49.368;11.068;2022-08-14T02:42:09;62.73;;;55.40;;
3811;SDS011;1921;49.368;11.068;2022-08-14T02:44:39;66.63;;;56.53;;
3811;SDS011;1921;49.368;11.068;2022-08-14T02:47:07;62.83;;;56.00;;
3811;SDS011;1921;49.368;11.068;2022-08-14T02:49:33;69.03;;;56.77;;
3811;SDS011;1921;49.368;11.068;2022-08-14T02:52:00;62.90;;;56.00;;
3811;SDS011;1921;49.368;11.068;2022-08-14T02:54:26;65.00;;;57.13;;
3811;SDS011;1921;49.368;11.068;2022-08-14T02:56:53;63.33;;;55.43;;
3811;SDS011;1921;49.368;11.068;2022-08-14T02:59:20;68.43;;;57.10;;
3811;SDS011;1921;49.368;11.068;2022-08-14T03:01:48;65.93;;;56.30;;
3811;SDS011;1921;49.368;11.068;2022-08-14T03:04:14;68.30;;;57.37;;
3811;SDS011;1921;49.368;11.068;2022-08-14T03:06:41;63.90;;;56.43;;
3811;SDS011;1921;49.368;11.068;2022-08-14T03:09:07;63.40;;;55.60;;
3811;SDS011;1921;49.368;11.068;2022-08-14T03:11:35;65.30;;;56.03;;
3811;SDS011;1921;49.368;11.068;2022-08-14T03:14:02;63.20;;;55.97;;
3811;SDS011;1921;49.368;11.068;2022-08-14T03:16:28;65.20;;;56.90;;
3811;SDS011;1921;49.368;11.068;2022-08-14T03:19:00;68.60;;;56.80;;
3811;SDS011;1921;49.368;11.068;2022-08-14T03:21:28;63.40;;;56.40;;
3811;SDS011;1921;49.368;11.068;2022-08-14T03:23:55;62.53;;;55.23;;
3811;SDS011;1921;49.368;11.068;2022-08-14T03:26:42;65.60;;;57.10;;
3811;SDS011;1921;49.368;11.068;2022-08-14T03:29:12;64.87;;;55.67;;
3811;SDS011;1921;49.368;11.068;2022-08-14T03:31:45;65.67;;;56.60;;
3811;SDS011;1921;49.368;11.068;2022-08-14T03:34:14;63.27;;;55.90;;
3811;SDS011;1921;49.368;11.068;2022-08-14T03:36:41;67.90;;;57.30;;
3811;SDS011;1921;49.368;11.068;2022-08-14T03:39:08;65.93;;;56.20;;
3811;SDS011;1921;49.368;11.068;2022-08-14T03:41:36;70.57;;;56.93;;
3811;SDS011;1921;49.368;11.068;2022-08-14T03:44:03;67.23;;;57.20;;
3811;SDS011;1921;49.368;11.068;2022-08-14T03:46:32;68.53;;;57.37;;
3811;SDS011;1921;49.368;11.068;2022-08-14T03:49:02;66.50;;;57.40;;
3811;SDS011;1921;49.368;11.068;2022-08-14T03:51:30;66.57;;;56.87;;
3811;SDS011;1921;49.368;11.068;2022-08-14T03:53:59;65.73;;;56.80;;
3811;SDS011;1921;49.368;11.068;2022-08-14T03:56:28;63.23;;;55.03;;
3811;SDS011;1921;49.368;11.068;2022-08-14T03:58:55;63.57;;;55.93;;
3811;SDS011;1921;49.368;11.068;2022-08-14T04:01:27;63.10;;;55.77;;
3811;SDS011;1921;49.368;11.068;2022-08-14T04:03:53;66.00;;;56.77;;
3811;SDS011;1921;49.368;11.068;2022-08-14T04:06:30;66.67;;;57.20;;
3811;SDS011;1921;49.368;11.068;2022-08-14T04:09:01;67.33;;;58.00;;
3811;SDS011;1921;49.368;11.068;2022-08-14T04:11:31;66.53;;;57.47;;
3811;SDS011;1921;49.368;11.068;2022-08-14T04:14:00;66.90;;;58.37;;
3811;SDS011;1921;49.368;11.068;2022-08-14T04:16:27;64.97;;;57.20;;
3811;SDS011;1921;49.368;11.068;2022-08-14T04:18:53;64.73;;;56.90;;
3811;SDS011;1921;49.368;11.068;2022-08-14T04:21:21;64.10;;;57.00;;
3811;SDS011;1921;49.368;11.068;2022-08-14T04:23:52;66.57;;;57.50;;
3811;SDS011;1921;49.368;11.068;2022-08-14T04:26:19;65.03;;;57.07;;
3811;SDS011;1921;49.368;11.068;2022-08-14T04:28:46;68.90;;;57.33;;
3811;SDS011;1921;49.368;11.068;2022-08-14T04:31:15;65.40;;;57.30;;
3811;SDS011;1921;49.368;11.068;2022-08-14T04:33:45;64.90;;;56.57;;
3811;SDS011;1921;49.368;11.068;2022-08-14T04:36:12;67.53;;;57.40;;
3811;SDS011;1921;49.368;11.068;2022-08-14T04:38:38;65.50;;;57.20;;
3811;SDS011;1921;49.368;11.068;2022-08-14T04:41:23;67.00;;;57.70;;
3811;SDS011;1921;49.368;11.068;2022-08-14T04:44:07;65.90;;;57.57;;
3811;SDS011;1921;49.368;11.068;2022-08-14T04:46:34;66.97;;;57.87;;
3811;SDS011;1921;49.368;11.068;2022-08-14T04:49:01;80.70;;;58.50;;
3811;SDS011;1921;49.368;11.068;2022-08-14T04:51:28;68.23;;;57.83;;
3811;SDS011;1921;49.368;11.068;2022-08-14T04:53:57;67.67;;;57.70;;
3811;SDS011;1921;49.368;11.068;2022-08-14T04:56:25;69.60;;;58.30;;
3811;SDS011;1921;49.368;11.068;2022-08-14T04:58:52;70.80;;;58.77;;
3811;SDS011;1921;49.368;11.068;2022-08-14T05:01:25;71.13;;;59.50;;
3811;SDS011;1921;49.368;11.068;2022-08-14T05:03:52;68.77;;;57.93;;
3811;SDS011;1921;49.368;11.068;2022-08-14T05:06:19;72.77;;;58.50;;
3811;SDS011;1921;49.368;11.068;2022-08-14T05:08:45;70.57;;;58.90;;
3811;SDS011;1921;49.368;11.068;2022-08-14T05:11:11;72.03;;;58.80;;
3811;SDS011;1921;49.368;11.068;2022-08-14T05:13:37;71.17;;;59.73;;
3811;SDS011;1921;49.368;11.068;2022-08-14T05:16:04;78.10;;;59.57;;
3811;SDS011;1921;49.368;11.068;2022-08-14T05:18:35;72.70;;;58.00;;
3811;SDS011;1921;49.368;11.068;2022-08-14T05:21:04;73.97;;;59.83;;
3811;SDS011;1921;49.368;11.068;2022-08-14T05:23:33;74.03;;;59.67;;
3811;SDS011;1921;49.368;11.068;2022-08-14T05:26:02;72.63;;;58.97;;
3811;SDS011;1921;49.368;11.068;2022-08-14T05:28:37;72.20;;;58.87;;
3811;SDS011;1921;49.368;11.068;2022-08-14T05:31:10;74.67;;;60.20;;
3811;SDS011;1921;49.368;11.068;2022-08-14T05:33:39;73.90;;;59.60;;
3811;SDS011;1921;49.368;11.068;2022-08-14T05:36:06;75.60;;;59.10;;
3811;SDS011;1921;49.368;11.068;2022-08-14T05:38:42;73.97;;;59.67;;
3811;SDS011;1921;49.368;11.068;2022-08-14T05:41:12;75.00;;;59.90;;
3811;SDS011;1921;49.368;11.068;2022-08-14T05:43:41;79.30;;;60.90;;
3811;SDS011;1921;49.368;11.068;2022-08-14T05:46:10;72.60;;;60.00;;
3811;SDS011;1921;49.368;11.068;2022-08-14T05:48:37;76.33;;;60.57;;
3811;SDS011;1921;49.368;11.068;2022-08-14T05:51:03;78.27;;;61.53;;
3811;SDS011;1921;49.368;11.068;2022-08-14T05:53:29;75.90;;;60.83;;
3811;SDS011;1921;49.368;11.068;2022-08-14T05:55:55;75.50;;;61.00;;
3811;SDS011;1921;49.368;11.068;2022-08-14T05:58:23;78.50;;;62.50;;
3811;SDS011;1921;49.368;11.068;2022-08-14T06:00:49;76.83;;;61.37;;
3811;SDS011;1921;49.368;11.068;2022-08-14T06:03:17;77.60;;;61.57;;
3811;SDS011;1921;49.368;11.068;2022-08-14T06:05:46;75.10;;;60.40;;
3811;SDS011;1921;49.368;11.068;2022-08-14T06:08:15;74.77;;;59.90;;
3811;SDS011;1921;49.368;11.068;2022-08-14T06:10:43;76.50;;;60.17;;
3811;SDS011;1921;49.368;11.068;2022-08-14T06:13:10;75.47;;;60.60;;
3811;SDS011;1921;49.368;11.068;2022-08-14T06:15:36;73.97;;;60.30;;
3811;SDS011;1921;49.368;11.068;2022-08-14T06:18:02;74.27;;;60.37;;
3811;SDS011;1921;49.368;11.068;2022-08-14T06:20:28;77.23;;;60.60;;
3811;SDS011;1921;49.368;11.068;2022-08-14T06:22:54;74.30;;;60.00;;
3811;SDS011;1921;49.368;11.068;2022-08-14T06:25:21;78.03;;;60.67;;
3811;SDS011;1921;49.368;11.068;2022-08-14T06:27:47;76.10;;;60.10;;
3811;SDS011;1921;49.368;11.068;2022-08-14T06:30:18;74.27;;;59.77;;
3811;SDS011;1921;49.368;11.068;2022-08-14T06:32:50;77.17;;;59.70;;
3811;SDS011;1921;49.368;11.068;2022-08-14T06:35:16;75.23;;;60.03;;
3811;SDS011;1921;49.368;11.068;2022-08-14T06:42:46;75.67;;;60.07;;
3811;SDS011;1921;49.368;11.068;2022-08-14T06:45:12;74.23;;;59.77;;
3811;SDS011;1921;49.368;11.068;2022-08-14T06:47:39;74.07;;;59.57;;
3811;SDS011;1921;49.368;11.068;2022-08-14T06:50:07;74.67;;;60.20;;
3811;SDS011;1921;49.368;11.068;2022-08-14T06:52:36;73.87;;;59.37;;
3811;SDS011;1921;49.368;11.068;2022-08-14T06:55:03;72.60;;;58.97;;
3811;SDS011;1921;49.368;11.068;2022-08-14T06:57:38;81.40;;;59.93;;
3811;SDS011;1921;49.368;11.068;2022-08-14T07:00:08;73.27;;;58.77;;
3811;SDS011;1921;49.368;11.068;2022-08-14T07:02:36;75.07;;;59.97;;
3811;SDS011;1921;49.368;11.068;2022-08-14T07:05:21;73.60;;;59.43;;
3811;SDS011;1921;49.368;11.068;2022-08-14T07:08:40;71.13;;;57.57;;
3811;SDS011;1921;49.368;11.068;2022-08-14T07:11:00;73.83;;;58.50;;
3811;SDS011;1921;49.368;11.068;2022-08-14T07:13:27;69.20;;;55.40;;
3811;SDS011;1921;49.368;11.068;2022-08-14T07:15:54;67.93;;;55.03;;
3811;SDS011;1921;49.368;11.068;2022-08-14T07:18:22;74.20;;;57.87;;
3811;SDS011;1921;49.368;11.068;2022-08-14T07:20:57;71.30;;;58.40;;
3811;SDS011;1921;49.368;11.068;2022-08-14T07:23:25;69.97;;;57.70;;
3811;SDS011;1921;49.368;11.068;2022-08-14T07:25:53;73.43;;;58.27;;
3811;SDS011;1921;49.368;11.068;2022-08-14T07:28:22;72.27;;;57.87;;
3811;SDS011;1921;49.368;11.068;2022-08-14T07:30:51;72.50;;;57.40;;
3811;SDS011;1921;49.368;11.068;2022-08-14T07:33:22;73.20;;;57.63;;
3811;SDS011;1921;49.368;11.068;2022-08-14T07:35:50;71.50;;;57.57;;
3811;SDS011;1921;49.368;11.068;2022-08-14T07:38:21;69.40;;;55.80;;
3811;SDS011;1921;49.368;11.068;2022-08-14T07:40:48;72.20;;;58.37;;
3811;SDS011;1921;49.368;11.068;2022-08-14T07:43:15;72.90;;;59.13;;
3811;SDS011;1921;49.368;11.068;2022-08-14T07:45:41;72.47;;;58.13;;
3811;SDS011;1921;49.368;11.068;2022-08-14T07:48:08;76.40;;;58.20;;
3811;SDS011;1921;49.368;11.068;2022-08-14T07:50:34;73.57;;;58.50;;
3811;SDS011;1921;49.368;11.068;2022-08-14T07:53:00;74.80;;;58.27;;
3811;SDS011;1921;49.368;11.068;2022-08-14T07:55:27;72.30;;;58.43;;
3811;SDS011;1921;49.368;11.068;2022-08-14T07:57:53;74.77;;;58.83;;
3811;SDS011;1921;49.368;11.068;2022-08-14T08:00:20;74.40;;;59.13;;
3811;SDS011;1921;49.368;11.068;2022-08-14T08:02:49;73.03;;;58.27;;
3811;SDS011;1921;49.368;11.068;2022-08-14T08:05:22;71.50;;;58.20;;
3811;SDS011;1921;49.368;11.068;2022-08-14T08:07:49;74.53;;;59.20;;
3811;SDS011;1921;49.368;11.068;2022-08-14T08:10:23;73.47;;;59.17;;
3811;SDS011;1921;49.368;11.068;2022-08-14T08:13:04;73.40;;;58.90;;
3811;SDS011;1921;49.368;11.068;2022-08-14T08:15:45;71.63;;;58.37;;
3811;SDS011;1921;49.368;11.068;2022-08-14T08:18:21;73.13;;;59.10;;
3811;SDS011;1921;49.368;11.068;2022-08-14T08:20:48;73.30;;;58.90;;
3811;SDS011;1921;49.368;11.068;2022-08-14T08:23:18;72.73;;;58.67;;
3811;SDS011;1921;49.368;11.068;2022-08-14T08:25:47;73.20;;;59.00;;
3811;SDS011;1921;49.368;11.068;2022-08-14T08:30:58;73.00;;;56.73;;
3811;SDS011;1921;49.368;11.068;2022-08-14T08:33:27;71.00;;;57.87;;
3811;SDS011;1921;49.368;11.068;2022-08-14T08:36:00;68.93;;;56.40;;
3811;SDS011;1921;49.368;11.068;2022-08-14T08:38:31;71.47;;;58.13;;
3811;SDS011;1921;49.368;11.068;2022-08-14T08:40:57;70.03;;;57.10;;
3811;SDS011;1921;49.368;11.068;2022-08-14T08:48:22;68.10;;;56.10;;
3811;SDS011;1921;49.368;11.068;2022-08-14T08:50:56;67.33;;;55.00;;
3811;SDS011;1921;49.368;11.068;2022-08-14T08:53:32;68.80;;;56.20;;
3811;SDS011;1921;49.368;11.068;2022-08-14T08:55:59;66.27;;;54.90;;
3811;SDS011;1921;49.368;11.068;2022-08-14T08:58:26;68.13;;;56.07;;
3811;SDS011;1921;49.368;11.068;2022-08-14T09:00:53;67.87;;;56.10;;
3811;SDS011;1921;49.368;11.068;2022-08-14T09:03:23;66.60;;;54.70;;
3811;SDS011;1921;49.368;11.068;2022-08-14T09:08:28;70.90;;;56.80;;
3811;SDS011;1921;49.368;11.068;2022-08-14T09:10:57;68.33;;;57.00;;
3811;SDS011;1921;49.368;11.068;2022-08-14T09:13:24;68.33;;;55.90;;
3811;SDS011;1921;49.368;11.068;2022-08-14T09:15:51;70.07;;;57.80;;
3811;SDS011;1921;49.368;11.068;2022-08-14T09:18:19;67.03;;;55.50;;
3811;SDS011;1921;49.368;11.068;2022-08-14T09:20:48;70.27;;;57.67;;
3811;SDS011;1921;49.368;11.068;2022-08-14T09:23:17;66.50;;;54.30;;
3811;SDS011;1921;49.368;11.068;2022-08-14T09:25:46;69.23;;;56.43;;
3811;SDS011;1921;49.368;11.068;2022-08-14T09:28:14;71.13;;;55.50;;
3811;SDS011;1921;49.368;11.068;2022-08-14T09:30:55;70.83;;;57.20;;
3811;SDS011;1921;49.368;11.068;2022-08-14T09:33:32;70.07;;;56.10;;
3811;SDS011;1921;49.368;11.068;2022-08-14T09:39:45;69.23;;;57.10;;
3811;SDS011;1921;49.368;11.068;2022-08-14T09:47:58;68.60;;;56.30;;
3811;SDS011;1921;49.368;11.068;2022-08-14T09:50:25;71.40;;;57.53;;
3811;SDS011;1921;49.368;11.068;2022-08-14T09:52:57;69.20;;;57.07;;
3811;SDS011;1921;49.368;11.068;2022-08-14T09:55:27;69.60;;;56.90;;
3811;SDS011;1921;49.368;11.068;2022-08-14T09:58:07;71.70;;;58.27;;
3811;SDS011;1921;49.368;11.068;2022-08-14T10:03:24;70.88;;;56.80;;
3811;SDS011;1921;49.368;11.068;2022-08-14T10:06:03;70.72;;;57.25;;
3811;SDS011;1921;49.368;11.068;2022-08-14T10:08:40;70.80;;;57.65;;
3811;SDS011;1921;49.368;11.068;2022-08-14T10:13:53;71.03;;;56.63;;
3811;SDS011;1921;49.368;11.068;2022-08-14T10:16:24;71.25;;;57.33;;
3811;SDS011;1921;49.368;11.068;2022-08-14T10:19:00;69.97;;;56.78;;
3811;SDS011;1921;49.368;11.068;2022-08-14T10:21:32;70.47;;;57.70;;
3811;SDS011;1921;49.368;11.068;2022-08-14T10:23:58;70.13;;;57.38;;
3811;SDS011;1921;49.368;11.068;2022-08-14T10:26:24;72.38;;;57.95;;
3811;SDS011;1921;49.368;11.068;2022-08-14T10:28:50;69.90;;;57.03;;
3811;SDS011;1921;49.368;11.068;2022-08-14T10:31:19;70.65;;;57.40;;
3811;SDS011;1921;49.368;11.068;2022-08-14T10:34:00;69.82;;;56.28;;
3811;SDS011;1921;49.368;11.068;2022-08-14T10:36:31;71.75;;;56.25;;
3811;SDS011;1921;49.368;11.068;2022-08-14T10:39:02;71.07;;;57.57;;
3811;SDS011;1921;49.368;11.068;2022-08-14T10:41:41;71.10;;;56.87;;
3811;SDS011;1921;49.368;11.068;2022-08-14T10:44:10;72.43;;;57.67;;
3811;SDS011;1921;49.368;11.068;2022-08-14T10:49:23;69.50;;;57.10;;
3811;SDS011;1921;49.368;11.068;2022-08-14T10:52:06;69.93;;;56.60;;
3811;SDS011;1921;49.368;11.068;2022-08-14T10:54:42;69.77;;;56.50;;
3811;SDS011;1921;49.368;11.068;2022-08-14T10:57:11;70.33;;;57.27;;
3811;SDS011;1921;49.368;11.068;2022-08-14T10:59:59;70.10;;;57.07;;
3811;SDS011;1921;49.368;11.068;2022-08-14T11:02:38;69.70;;;56.00;;
3811;SDS011;1921;49.368;11.068;2022-08-14T11:07:36;69.23;;;56.63;;
3811;SDS011;1921;49.368;11.068;2022-08-14T11:10:11;70.90;;;58.10;;
3811;SDS011;1921;49.368;11.068;2022-08-14T11:15:15;68.90;;;56.63;;
3811;SDS011;1921;49.368;11.068;2022-08-14T11:17:43;70.30;;;56.43;;
3811;SDS011;1921;49.368;11.068;2022-08-14T11:20:11;70.05;;;57.15;;
3811;SDS011;1921;49.368;11.068;2022-08-14T11:22:39;70.40;;;57.55;;
3811;SDS011;1921;49.368;11.068;2022-08-14T11:25:06;69.75;;;57.38;;
3811;SDS011;1921;49.368;11.068;2022-08-14T11:27:45;69.55;;;56.75;;
3811;SDS011;1921;49.368;11.068;2022-08-14T11:30:12;69.35;;;56.83;;
3811;SDS011;1921;49.368;11.068;2022-08-14T11:32:44;70.47;;;56.83;;
3811;SDS011;1921;49.368;11.068;2022-08-14T11:35:16;69.35;;;57.38;;
3811;SDS011;1921;49.368;11.068;2022-08-14T11:37:52;69.15;;;56.88;;
3811;SDS011;1921;49.368;11.068;2022-08-14T11:40:29;69.20;;;56.90;;
3811;SDS011;1921;49.368;11.068;2022-08-14T11:42:59;70.60;;;57.17;;
3811;SDS011;1921;49.368;11.068;2022-08-14T11:45:28;70.70;;;56.95;;
3811;SDS011;1921;49.368;11.068;2022-08-14T11:48:01;71.05;;;57.35;;
3811;SDS011;1921;49.368;11.068;2022-08-14T11:50:49;69.85;;;57.17;;
3811;SDS011;1921;49.368;11.068;2022-08-14T11:53:25;71.72;;;57.67;;
3811;SDS011;1921;49.368;11.068;2022-08-14T11:55:56;72.03;;;57.88;;
3811;SDS011;1921;49.368;11.068;2022-08-14T11:58:35;71.07;;;57.65;;
3811;SDS011;1921;49.368;11.068;2022-08-14T12:01:04;73.18;;;58.33;;
3811;SDS011;1921;49.368;11.068;2022-08-14T12:03:34;70.30;;;57.47;;
3811;SDS011;1921;49.368;11.068;2022-08-14T12:06:14;70.03;;;56.78;;
3811;SDS011;1921;49.368;11.068;2022-08-14T12:08:43;69.75;;;57.60;;
3811;SDS011;1921;49.368;11.068;2022-08-14T12:11:18;69.88;;;56.85;;
3811;SDS011;1921;49.368;11.068;2022-08-14T12:13:44;69.35;;;57.10;;
3811;SDS011;1921;49.368;11.068;2022-08-14T12:16:14;72.50;;;56.33;;
3811;SDS011;1921;49.368;11.068;2022-08-14T12:18:42;70.30;;;57.10;;
3811;SDS011;1921;49.368;11.068;2022-08-14T12:23:46;70.38;;;56.85;;
3811;SDS011;1921;49.368;11.068;2022-08-14T12:26:26;71.90;;;57.75;;
3811;SDS011;1921;49.368;11.068;2022-08-14T12:29:05;70.47;;;57.47;;
3811;SDS011;1921;49.368;11.068;2022-08-14T12:31:33;72.47;;;58.20;;
3811;SDS011;1921;49.368;11.068;2022-08-14T12:34:04;72.93;;;58.40;;
3811;SDS011;1921;49.368;11.068;2022-08-14T12:36:32;71.05;;;58.20;;
3811;SDS011;1921;49.368;11.068;2022-08-14T12:39:00;70.60;;;57.85;;
3811;SDS011;1921;49.368;11.068;2022-08-14T12:41:47;71.03;;;57.60;;
3811;SDS011;1921;49.368;11.068;2022-08-14T12:44:34;70.93;;;57.88;;
3811;SDS011;1921;49.368;11.068;2022-08-14T12:47:08;69.38;;;57.30;;
3811;SDS011;1921;49.368;11.068;2022-08-14T12:49:51;72.32;;;57.67;;
3811;SDS011;1921;49.368;11.068;2022-08-14T12:55:07;70.05;;;57.33;;
3811;SDS011;1921;49.368;11.068;2022-08-14T12:57:42;70.32;;;56.72;;
3811;SDS011;1921;49.368;11.068;2022-08-14T13:00:12;70.55;;;56.65;;
3811;SDS011;1921;49.368;11.068;2022-08-14T13:02:41;70.00;;;56.67;;
3811;SDS011;1921;49.368;11.068;2022-08-14T13:05:14;68.75;;;56.58;;
3811;SDS011;1921;49.368;11.068;2022-08-14T13:07:40;69.38;;;56.70;;
3811;SDS011;1921;49.368;11.068;2022-08-14T13:10:11;68.72;;;56.88;;
3811;SDS011;1921;49.368;11.068;2022-08-14T13:12:41;70.05;;;57.08;;
3811;SDS011;1921;49.368;11.068;2022-08-14T13:15:11;70.47;;;55.90;;
3811;SDS011;1921;49.368;11.068;2022-08-14T13:17:49;70.22;;;56.78;;
3811;SDS011;1921;49.368;11.068;2022-08-14T13:20:24;70.13;;;57.50;;
3811;SDS011;1921;49.368;11.068;2022-08-14T13:22:50;69.63;;;56.83;;
3811;SDS011;1921;49.368;11.068;2022-08-14T13:25:20;71.47;;;57.53;;
3811;SDS011;1921;49.368;11.068;2022-08-14T13:27:50;71.22;;;57.75;;
3811;SDS011;1921;49.368;11.068;2022-08-14T13:30:22;71.32;;;57.83;;
3811;SDS011;1921;49.368;11.068;2022-08-14T13:32:49;71.45;;;57.42;;
3811;SDS011;1921;49.368;11.068;2022-08-14T13:35:18;71.90;;;57.90;;
3811;SDS011;1921;49.368;11.068;2022-08-14T13:37:45;70.32;;;57.75;;
3811;SDS011;1921;49.368;11.068;2022-08-14T13:40:13;69.47;;;56.78;;
3811;SDS011;1921;49.368;11.068;2022-08-14T13:42:45;71.28;;;56.45;;
3811;SDS011;1921;49.368;11.068;2022-08-14T13:45:13;68.65;;;56.67;;
3811;SDS011;1921;49.368;11.068;2022-08-14T13:47:39;69.10;;;56.72;;
3811;SDS011;1921;49.368;11.068;2022-08-14T13:50:08;70.40;;;56.08;;
3811;SDS011;1921;49.368;11.068;2022-08-14T13:55:11;69.97;;;56.70;;
3811;SDS011;1921;49.368;11.068;2022-08-14T13:57:41;68.03;;;55.63;;
3811;SDS011;1921;49.368;11.068;2022-08-14T14:00:11;68.25;;;55.92;;
3811;SDS011;1921;49.368;11.068;2022-08-14T14:02:39;73.25;;;57.22;;
3811;SDS011;1921;49.368;11.068;2022-08-14T14:05:08;68.28;;;56.45;;
3811;SDS011;1921;49.368;11.068;2022-08-14T14:07:38;71.13;;;57.17;;
3811;SDS011;1921;49.368;11.068;2022-08-14T14:10:10;69.03;;;56.42;;
3811;SDS011;1921;49.368;11.068;2022-08-14T14:12:37;68.07;;;55.28;;
3811;SDS011;1921;49.368;11.068;2022-08-14T14:15:08;67.38;;;54.88;;
3811;SDS011;1921;49.368;11.068;2022-08-14T14:17:38;69.35;;;56.20;;
3811;SDS011;1921;49.368;11.068;2022-08-14T14:20:06;69.47;;;56.30;;
3811;SDS011;1921;49.368;11.068;2022-08-14T14:22:38;68.10;;;56.33;;
3811;SDS011;1921;49.368;11.068;2022-08-14T14:25:06;68.00;;;55.10;;
3811;SDS011;1921;49.368;11.068;2022-08-14T14:27:34;69.03;;;56.50;;
3811;SDS011;1921;49.368;11.068;2022-08-14T14:30:03;69.90;;;56.17;;
3811;SDS011;1921;49.368;11.068;2022-08-14T14:32:30;66.47;;;54.70;;
3811;SDS011;1921;49.368;11.068;2022-08-14T14:34:58;69.53;;;56.07;;
3811;SDS011;1921;49.368;11.068;2022-08-14T14:37:26;66.87;;;54.80;;
3811;SDS011;1921;49.368;11.068;2022-08-14T14:39:54;68.18;;;56.53;;
3811;SDS011;1921;49.368;11.068;2022-08-14T14:42:25;68.78;;;56.00;;
3811;SDS011;1921;49.368;11.068;2022-08-14T14:45:01;69.20;;;56.85;;
3811;SDS011;1921;49.368;11.068;2022-08-14T14:47:39;69.88;;;56.97;;
3811;SDS011;1921;49.368;11.068;2022-08-14T14:50:08;67.00;;;55.33;;
3811;SDS011;1921;49.368;11.068;2022-08-14T14:52:35;67.07;;;54.40;;
3811;SDS011;1921;49.368;11.068;2022-08-14T14:55:02;69.17;;;56.50;;
3811;SDS011;1921;49.368;11.068;2022-08-14T14:57:29;69.30;;;56.53;;
3811;SDS011;1921;49.368;11.068;2022-08-14T14:59:55;68.80;;;56.10;;
3811;SDS011;1921;49.368;11.068;2022-08-14T15:02:32;70.33;;;56.90;;
3811;SDS011;1921;49.368;11.068;2022-08-14T15:05:02;70.88;;;56.95;;
3811;SDS011;1921;49.368;11.068;2022-08-14T15:07:32;68.15;;;56.03;;
3811;SDS011;1921;49.368;11.068;2022-08-14T15:09:59;67.55;;;56.22;;
3811;SDS011;1921;49.368;11.068;2022-08-14T15:12:24;68.93;;;56.40;;
3811;SDS011;1921;49.368;11.068;2022-08-14T15:14:50;69.18;;;57.03;;
3811;SDS011;1921;49.368;11.068;2022-08-14T15:17:16;73.50;;;56.53;;
3811;SDS011;1921;49.368;11.068;2022-08-14T15:19:43;69.68;;;57.05;;
3811;SDS011;1921;49.368;11.068;2022-08-14T15:22:09;70.05;;;57.08;;
3811;SDS011;1921;49.368;11.068;2022-08-14T15:24:35;69.10;;;57.13;;
3811;SDS011;1921;49.368;11.068;2022-08-14T15:27:02;68.47;;;56.07;;
3811;SDS011;1921;49.368;11.068;2022-08-14T15:29:30;70.10;;;57.70;;
3811;SDS011;1921;49.368;11.068;2022-08-14T15:32:03;68.87;;;57.03;;
3811;SDS011;1921;49.368;11.068;2022-08-14T15:34:33;68.50;;;56.60;;